Fergus, Canada
Current Conditions -  °F | °C
As of 5:00 AM on Saturday 20 Dec 2014 (Local Time) from CYKF Reporting Station
Few Clouds Few Clouds  
Wind Chill: 18°   Ceiling: Unl
Heat Index: 18°   Visibility: 9mi
Dew Point: 18°   Wind: 2mph
Humidity: 100%   Direction: 330°NNW
Pressure: 30.25"   Gusts: NA
Location:  43.7°N, 80.37°W
Report Text: CYKF 201000Z AUTO 33002KT 9SM FEW060 M08/M08 A3025 RMK SLP262
Loading
Personal Weather Stations






























Interactive Weather Map New forecast layout! Learn more

10-Day Weather Forecast

Advertisements
Track Severe Weather on mobile